Sadrinsk, Russia
Current Conditions -  °F | °C
As of 7:30 AM on Thursday 23 Oct 2014 (Local Time) from USCC Reporting Station
Overcast Overcast  
Wind Chill: 25°   Ceiling: 1600
Heat Index: 34°   Visibility: 6mi
Dew Point: 34°   Wind: 11mph
Humidity: 100%   Direction: 300°WNW
Pressure: 29.44"   Gusts: NA
Location:  56.07°N, 63.65°E
Report Text: USCC 230230Z 30005MPS 9999 BKN016CB OVC070 01/01 Q0997 09290045NOSIG RMK QFE728
Loading
Personal Weather Stations






























Interactive Weather Map
Tropical Storm Tracking
New forecast layout! Learn more

10-Day Weather Forecast

Advertisements
Track Severe Weather on mobile